createdAt,value
2024-05-09T00:00:30.555Z,22.10
2024-05-09T00:01:24.066Z,23.00
2024-05-09T00:02:24.183Z,22.70
2024-05-09T00:03:24.048Z,23.50
2024-05-09T00:04:23.934Z,23.10
2024-05-09T00:05:23.974Z,22.60
2024-05-09T00:06:23.846Z,22.10
2024-05-09T00:07:23.802Z,22.60
2024-05-09T00:08:23.811Z,23.60
2024-05-09T00:09:23.723Z,24.40
2024-05-09T00:10:32.639Z,24.20
2024-05-09T00:11:23.863Z,24.20
2024-05-09T00:12:23.675Z,24.80
2024-05-09T00:13:23.554Z,24.30
2024-05-09T00:14:23.567Z,24.30
2024-05-09T00:15:23.510Z,24.10
2024-05-09T00:16:23.434Z,23.90
2024-05-09T00:17:23.579Z,23.90
2024-05-09T00:18:23.595Z,24.70
2024-05-09T00:19:23.394Z,25.30
2024-05-09T00:20:28.580Z,24.90
2024-05-09T00:21:23.244Z,26.90
2024-05-09T00:22:23.185Z,26.10
2024-05-09T00:23:23.235Z,26.50
2024-05-09T00:24:23.101Z,25.70
2024-05-09T00:25:23.070Z,26.00
2024-05-09T00:26:23.142Z,24.90
2024-05-09T00:27:23.003Z,25.00
2024-05-09T00:28:22.941Z,25.30
2024-05-09T00:29:22.921Z,24.50
2024-05-09T00:30:31.609Z,24.40
2024-05-09T00:31:22.817Z,25.70
2024-05-09T00:32:22.916Z,25.00
2024-05-09T00:33:22.963Z,26.70
2024-05-09T00:34:22.815Z,27.40
2024-05-09T00:35:22.712Z,27.80
2024-05-09T00:36:22.600Z,28.20
2024-05-09T00:37:22.574Z,29.10
2024-05-09T00:38:22.569Z,29.50
2024-05-09T00:39:22.517Z,28.60
2024-05-09T00:40:30.660Z,27.50
2024-05-09T00:41:22.445Z,27.90
2024-05-09T00:42:22.358Z,27.50
2024-05-09T00:43:22.320Z,27.80
2024-05-09T00:44:22.388Z,28.80
2024-05-09T00:45:22.263Z,29.00
2024-05-09T00:46:22.207Z,29.10
2024-05-09T00:47:22.318Z,29.50
2024-05-09T00:48:22.389Z,31.20
2024-05-09T00:49:22.121Z,30.60
2024-05-09T00:50:29.453Z,32.50
2024-05-09T00:51:22.046Z,31.90
2024-05-09T00:52:21.944Z,34.30
2024-05-09T00:53:21.968Z,33.40
2024-05-09T00:54:21.869Z,33.80
2024-05-09T00:55:21.829Z,31.60
2024-05-09T00:56:21.907Z,34.00
2024-05-09T00:57:21.742Z,32.60
2024-05-09T00:58:21.706Z,32.00
2024-05-09T00:59:21.723Z,30.70
2024-05-09T01:00:27.385Z,30.40
2024-05-09T01:01:21.615Z,31.00
2024-05-09T01:02:21.625Z,31.40
2024-05-09T01:03:21.866Z,32.40
2024-05-09T01:04:21.497Z,33.00
2024-05-09T01:05:21.445Z,32.00
2024-05-09T01:06:21.385Z,33.10
2024-05-09T01:07:21.356Z,31.90
2024-05-09T01:08:21.457Z,31.80
2024-05-09T01:09:21.255Z,34.30
2024-05-09T01:10:27.746Z,35.30
2024-05-09T01:11:21.257Z,35.00
2024-05-09T01:12:21.235Z,34.60
2024-05-09T01:13:21.104Z,34.70
2024-05-09T01:14:21.149Z,32.50
2024-05-09T01:15:21.004Z,31.20
2024-05-09T01:16:20.953Z,32.40
2024-05-09T01:17:21.013Z,31.80
2024-05-09T01:18:21.058Z,31.90
2024-05-09T01:19:20.882Z,34.80
2024-05-09T01:20:31.743Z,33.00
2024-05-09T01:21:20.799Z,33.20
2024-05-09T01:22:20.716Z,30.00
2024-05-09T01:23:20.720Z,30.90
2024-05-09T01:24:20.637Z,29.40
2024-05-09T01:25:20.582Z,30.70
2024-05-09T01:26:20.576Z,30.20
2024-05-09T01:27:20.519Z,30.70
2024-05-09T01:28:20.469Z,30.30
2024-05-09T01:29:20.495Z,31.00
2024-05-09T01:30:24.559Z,30.80
2024-05-09T01:31:20.334Z,32.60
2024-05-09T01:32:20.386Z,33.70
2024-05-09T01:33:20.465Z,35.60
2024-05-09T01:34:20.324Z,34.60
2024-05-09T01:35:20.185Z,36.60
2024-05-09T01:36:20.156Z,37.30
2024-05-09T01:37:20.087Z,37.20
2024-05-09T01:38:20.182Z,37.80
2024-05-09T01:39:20.031Z,36.10
2024-05-09T01:40:25.339Z,36.70
2024-05-09T01:41:19.977Z,35.70
2024-05-09T01:42:19.910Z,37.00
2024-05-09T01:43:19.850Z,36.80
2024-05-09T01:44:19.895Z,39.10
2024-05-09T01:45:19.755Z,39.30
2024-05-09T01:46:19.712Z,36.10
2024-05-09T01:47:19.753Z,37.40
2024-05-09T01:48:19.806Z,35.80
2024-05-09T01:49:19.736Z,36.70
2024-05-09T01:50:28.949Z,35.10
2024-05-09T01:51:19.573Z,34.90
2024-05-09T01:52:19.475Z,36.20
2024-05-09T01:53:19.450Z,38.30
2024-05-09T01:54:19.426Z,38.50
2024-05-09T01:55:19.343Z,40.10
2024-05-09T01:56:19.340Z,41.40
2024-05-09T01:57:19.257Z,38.60
2024-05-09T01:58:19.215Z,36.00
2024-05-09T01:59:19.226Z,38.30
2024-05-09T02:00:30.044Z,38.00
2024-05-09T02:01:19.116Z,37.90
2024-05-09T02:02:19.234Z,38.00
2024-05-09T02:03:19.282Z,35.10
2024-05-09T02:04:19.213Z,36.40
2024-05-09T02:05:19.160Z,36.20
2024-05-09T02:06:18.900Z,34.70
2024-05-09T02:07:18.851Z,34.30
2024-05-09T02:08:19.396Z,35.30
2024-05-09T02:09:18.757Z,36.90
2024-05-09T02:10:25.961Z,37.30
2024-05-09T02:11:18.785Z,41.60
2024-05-09T02:12:18.804Z,42.80
2024-05-09T02:13:18.697Z,39.50
2024-05-09T02:14:18.643Z,41.80
2024-05-09T02:15:18.526Z,43.70
2024-05-09T02:16:18.470Z,45.00
2024-05-09T02:17:18.572Z,45.70
2024-05-09T02:18:18.470Z,47.20
2024-05-09T02:19:18.548Z,47.90
2024-05-09T02:20:26.776Z,45.30
2024-05-09T02:21:18.265Z,45.40
2024-05-09T02:22:18.218Z,47.70
2024-05-09T02:23:18.308Z,45.50
2024-05-09T02:24:18.135Z,44.60
2024-05-09T02:25:19.093Z,43.50
2024-05-09T02:26:18.120Z,41.20
2024-05-09T02:27:18.004Z,40.40
2024-05-09T02:28:17.972Z,39.80
2024-05-09T02:29:17.973Z,38.80
2024-05-09T02:30:25.890Z,40.60
2024-05-09T02:31:25.387Z,44.40
2024-05-09T02:32:17.944Z,41.20
2024-05-09T02:33:17.917Z,41.30
2024-05-09T02:34:25.905Z,42.20
2024-05-09T02:35:26.880Z,42.40
2024-05-09T02:36:25.804Z,43.40
2024-05-09T02:37:25.865Z,44.40
2024-05-09T02:38:26.424Z,49.70
2024-05-09T02:39:25.663Z,46.80
2024-05-09T02:40:35.129Z,49.00
2024-05-09T02:41:17.468Z,48.50
2024-05-09T02:42:17.401Z,47.50
2024-05-09T02:43:17.336Z,51.70
2024-05-09T02:44:17.370Z,46.20
2024-05-09T02:45:17.283Z,46.40
2024-05-09T02:46:17.211Z,45.10
2024-05-09T02:47:17.230Z,46.50
2024-05-09T02:48:17.230Z,45.80
2024-05-09T02:49:17.277Z,47.90
2024-05-09T02:50:25.982Z,47.10
2024-05-09T02:51:17.052Z,47.50
2024-05-09T02:52:16.976Z,49.10
2024-05-09T02:53:16.919Z,49.20
2024-05-09T02:54:16.876Z,47.80
2024-05-09T02:55:16.834Z,47.10
2024-05-09T02:56:16.831Z,46.90
2024-05-09T02:57:16.748Z,47.00
2024-05-09T02:58:16.703Z,46.40
2024-05-09T02:59:16.685Z,47.40
2024-05-09T03:00:22.763Z,46.00
2024-05-09T03:01:16.594Z,45.40
2024-05-09T03:02:16.612Z,46.20
2024-05-09T03:03:16.641Z,49.90
2024-05-09T03:04:16.618Z,48.50
2024-05-09T03:05:16.528Z,50.20
2024-05-09T03:06:16.368Z,50.30
2024-05-09T03:07:19.072Z,48.30
2024-05-09T03:08:16.347Z,47.90
2024-05-09T03:09:16.255Z,49.30
2024-05-09T03:10:22.330Z,50.20
2024-05-09T03:11:16.260Z,50.90
2024-05-09T03:12:16.172Z,50.50
2024-05-09T03:13:16.519Z,49.90
2024-05-09T03:14:16.095Z,51.30
2024-05-09T03:15:16.014Z,51.60
2024-05-09T03:16:15.953Z,52.30
2024-05-09T03:17:15.928Z,50.40
2024-05-09T03:18:16.077Z,52.30
2024-05-09T03:19:16.036Z,52.50
2024-05-09T03:20:23.230Z,52.00
2024-05-09T03:21:15.789Z,52.80
2024-05-09T03:22:15.703Z,53.70
2024-05-09T03:23:15.969Z,53.20
2024-05-09T03:24:15.651Z,52.90
2024-05-09T03:25:15.577Z,53.50
2024-05-09T03:26:15.601Z,52.90
2024-05-09T03:27:15.492Z,53.70
2024-05-09T03:28:15.446Z,52.90
2024-05-09T03:29:15.500Z,52.70
2024-05-09T03:30:28.877Z,51.20
2024-05-09T03:31:15.324Z,51.10
2024-05-09T03:32:15.368Z,51.50
2024-05-09T03:33:16.092Z,53.20
2024-05-09T03:34:15.223Z,53.10
2024-05-09T03:35:15.193Z,51.70
2024-05-09T03:36:15.132Z,50.00
2024-05-09T03:37:15.084Z,49.00
2024-05-09T03:38:15.430Z,47.00
2024-05-09T03:39:15.007Z,49.40
2024-05-09T03:40:20.848Z,46.50
2024-05-09T03:41:14.947Z,47.20
2024-05-09T03:42:14.877Z,49.50
2024-05-09T03:43:14.824Z,50.50
2024-05-09T03:44:14.803Z,51.30
2024-05-09T03:45:14.738Z,52.20
2024-05-09T03:46:14.695Z,52.30
2024-05-09T03:47:14.810Z,51.70
2024-05-09T03:48:14.786Z,50.70
2024-05-09T03:49:14.683Z,50.40
2024-05-09T03:50:22.021Z,50.20
2024-05-09T03:51:14.534Z,50.80
2024-05-09T03:52:14.443Z,51.50
2024-05-09T03:53:14.608Z,53.10
2024-05-09T03:54:14.385Z,54.90
2024-05-09T03:55:14.325Z,54.60
2024-05-09T03:56:14.314Z,54.70
2024-05-09T03:57:14.234Z,55.00
2024-05-09T03:58:14.188Z,55.00
2024-05-09T03:59:14.239Z,54.60
2024-05-09T04:00:18.294Z,53.60
2024-05-09T04:01:14.108Z,52.50
2024-05-09T04:02:14.129Z,52.00
2024-05-09T04:03:14.188Z,50.80
2024-05-09T04:04:14.104Z,50.90
2024-05-09T04:05:14.003Z,49.30
2024-05-09T04:06:13.867Z,49.00
2024-05-09T04:07:13.818Z,49.90
2024-05-09T04:08:13.839Z,48.40
2024-05-09T04:09:13.735Z,49.00
2024-05-09T04:10:21.212Z,50.20
2024-05-09T04:11:13.728Z,48.80
2024-05-09T04:12:13.761Z,47.90
2024-05-09T04:13:13.571Z,49.10
2024-05-09T04:14:13.683Z,50.20
2024-05-09T04:15:13.731Z,49.00
2024-05-09T04:16:13.450Z,45.90
2024-05-09T04:17:13.437Z,44.00
2024-05-09T04:18:13.446Z,44.70
2024-05-09T04:19:13.371Z,46.50
2024-05-09T04:20:24.160Z,45.30
2024-05-09T04:21:13.268Z,47.20
2024-05-09T04:22:13.192Z,46.10
2024-05-09T04:23:13.868Z,47.20
2024-05-09T04:24:13.124Z,45.80
2024-05-09T04:25:13.062Z,44.10
2024-05-09T04:26:13.087Z,45.20
2024-05-09T04:27:12.994Z,45.00
2024-05-09T04:28:12.953Z,45.10
2024-05-09T04:29:12.907Z,44.70
2024-05-09T04:30:21.688Z,45.60
2024-05-09T04:31:12.814Z,45.30
2024-05-09T04:32:12.865Z,45.50
2024-05-09T04:33:14.347Z,43.60
2024-05-09T04:34:13.128Z,43.30
2024-05-09T04:35:12.795Z,43.20
2024-05-09T04:36:12.779Z,43.10
2024-05-09T04:37:12.568Z,41.90
2024-05-09T04:38:12.685Z,43.00
2024-05-09T04:39:12.517Z,41.80
2024-05-09T04:40:23.681Z,41.40
2024-05-09T04:41:12.447Z,40.20
2024-05-09T04:42:12.366Z,40.70
2024-05-09T04:43:12.315Z,39.90
2024-05-09T04:44:12.337Z,39.00
2024-05-09T04:45:12.229Z,39.90
2024-05-09T04:46:12.226Z,39.60
2024-05-09T04:47:12.263Z,38.30
2024-05-09T04:48:12.326Z,38.30
2024-05-09T04:49:12.162Z,36.00
2024-05-09T04:50:17.695Z,37.00
2024-05-09T04:51:12.032Z,36.50
2024-05-09T04:52:11.953Z,36.40
2024-05-09T04:53:11.922Z,36.70
2024-05-09T04:54:22.199Z,35.90
2024-05-09T04:55:11.823Z,35.80
2024-05-09T04:56:11.837Z,35.20
2024-05-09T04:57:11.754Z,34.50
2024-05-09T04:58:11.792Z,33.50
2024-05-09T04:59:11.703Z,30.90
2024-05-09T05:00:14.809Z,30.20
2024-05-09T05:01:11.598Z,27.80
2024-05-09T05:02:11.609Z,26.40
2024-05-09T05:03:13.980Z,26.20
2024-05-09T05:04:11.512Z,25.30
2024-05-09T05:05:12.137Z,23.50
2024-05-09T05:06:11.399Z,23.90
2024-05-09T05:07:11.330Z,23.50
2024-05-09T05:08:11.369Z,24.10
2024-05-09T05:09:11.253Z,24.70
2024-05-09T05:10:15.064Z,23.90
2024-05-09T05:11:11.219Z,23.50
2024-05-09T05:12:11.222Z,22.90
2024-05-09T05:13:11.113Z,23.10
2024-05-09T05:14:11.076Z,22.80
2024-05-09T05:15:11.030Z,22.30
2024-05-09T05:16:10.978Z,22.40
2024-05-09T05:17:10.968Z,22.40
2024-05-09T05:18:11.116Z,22.30
2024-05-09T05:19:13.408Z,22.20
2024-05-09T05:20:15.209Z,21.70
2024-05-09T05:21:10.847Z,21.90
2024-05-09T05:22:10.747Z,22.00
2024-05-09T05:23:10.793Z,22.50
2024-05-09T05:24:10.673Z,21.70
2024-05-09T05:25:10.643Z,22.30
2024-05-09T05:26:10.619Z,22.50
2024-05-09T05:27:10.567Z,22.70
2024-05-09T05:28:10.680Z,22.20
2024-05-09T05:29:10.528Z,22.40
2024-05-09T05:30:17.548Z,22.10
2024-05-09T05:31:10.562Z,23.30
2024-05-09T05:32:10.445Z,22.80
2024-05-09T05:33:10.464Z,23.40
2024-05-09T05:34:10.316Z,22.60
2024-05-09T05:35:10.309Z,22.70
2024-05-09T05:36:10.242Z,21.30
2024-05-09T05:37:10.192Z,21.40
2024-05-09T05:38:10.400Z,20.90
2024-05-09T05:39:10.111Z,21.20
2024-05-09T05:40:14.595Z,20.50
2024-05-09T05:41:10.050Z,20.90
2024-05-09T05:42:10.009Z,21.90
2024-05-09T05:43:10.525Z,21.20
2024-05-09T05:44:09.966Z,22.50
2024-05-09T05:45:10.041Z,20.70
2024-05-09T05:46:09.859Z,20.90
2024-05-09T05:47:09.948Z,20.40
2024-05-09T05:48:10.052Z,21.00
2024-05-09T05:49:09.965Z,20.10
2024-05-09T05:50:20.400Z,20.80
2024-05-09T05:51:09.899Z,20.60
2024-05-09T05:52:09.647Z,20.40
2024-05-09T05:53:10.330Z,20.40
2024-05-09T05:54:09.599Z,20.30
2024-05-09T05:55:09.547Z,20.20
2024-05-09T05:56:09.558Z,19.60
2024-05-09T05:57:10.003Z,20.20
2024-05-09T05:58:09.438Z,20.50
2024-05-09T05:59:10.575Z,19.60
2024-05-09T06:00:09.890Z,20.00
2024-05-09T06:01:09.374Z,19.80
2024-05-09T06:02:09.380Z,20.30
2024-05-09T06:03:10.152Z,19.60
2024-05-09T06:04:09.420Z,19.00
2024-05-09T06:05:09.248Z,18.30
2024-05-09T06:06:09.225Z,19.00
2024-05-09T06:07:09.136Z,19.30
2024-05-09T06:08:09.454Z,19.80
2024-05-09T06:09:09.060Z,20.70
2024-05-09T06:10:17.030Z,21.20
2024-05-09T06:11:09.105Z,20.20
2024-05-09T06:12:09.149Z,20.80
2024-05-09T06:13:08.935Z,20.30
2024-05-09T06:14:09.018Z,20.80
2024-05-09T06:15:08.868Z,21.30
2024-05-09T06:16:08.834Z,21.20
2024-05-09T06:17:08.894Z,20.80
2024-05-09T06:18:09.283Z,21.50
2024-05-09T06:19:08.810Z,22.10
2024-05-09T06:20:16.629Z,21.70
2024-05-09T06:21:08.797Z,21.60
2024-05-09T06:22:08.662Z,21.20
2024-05-09T06:23:09.230Z,21.60
2024-05-09T06:24:08.572Z,22.10
2024-05-09T06:25:08.541Z,23.10
2024-05-09T06:26:08.562Z,21.50
2024-05-09T06:27:08.478Z,22.10
2024-05-09T06:28:08.462Z,22.40
2024-05-09T06:29:08.469Z,22.40
2024-05-09T06:30:12.170Z,22.20
2024-05-09T06:31:08.343Z,22.10
2024-05-09T06:32:08.442Z,22.40
2024-05-09T06:33:08.935Z,21.40
2024-05-09T06:34:08.326Z,21.90
2024-05-09T06:35:08.243Z,22.20
2024-05-09T06:36:08.186Z,21.10
2024-05-09T06:37:08.158Z,22.60
2024-05-09T06:38:08.191Z,22.20
2024-05-09T06:39:08.100Z,21.90
2024-05-09T06:40:10.004Z,22.50
2024-05-09T06:41:08.056Z,22.30
2024-05-09T06:42:07.993Z,22.60
2024-05-09T06:43:07.965Z,22.00
2024-05-09T06:44:07.987Z,21.30
2024-05-09T06:45:07.912Z,21.70
2024-05-09T06:46:07.866Z,21.90
2024-05-09T06:47:08.067Z,22.40
2024-05-09T06:48:08.117Z,23.50
2024-05-09T06:49:07.991Z,23.00
2024-05-09T06:50:13.350Z,22.80
2024-05-09T06:51:07.731Z,22.50
2024-05-09T06:52:07.677Z,22.90
2024-05-09T06:53:07.797Z,23.30
2024-05-09T06:54:07.611Z,23.40
2024-05-09T06:55:07.578Z,23.10
2024-05-09T06:56:07.646Z,22.40
2024-05-09T06:57:07.520Z,22.90
2024-05-09T06:58:07.487Z,23.70
2024-05-09T06:59:07.479Z,24.00
2024-05-09T07:00:10.313Z,23.70
2024-05-09T07:01:07.417Z,22.40
2024-05-09T07:02:07.543Z,22.80
2024-05-09T07:03:07.560Z,23.00
2024-05-09T07:04:07.499Z,23.20
2024-05-09T07:05:07.489Z,23.00
2024-05-09T07:06:07.269Z,23.10
2024-05-09T07:07:07.227Z,24.10
2024-05-09T07:08:07.243Z,24.10
2024-05-09T07:09:07.155Z,23.40
2024-05-09T07:10:10.022Z,24.80
2024-05-09T07:11:07.164Z,23.50
2024-05-09T07:12:07.236Z,24.10
2024-05-09T07:13:07.043Z,24.90
2024-05-09T07:14:07.066Z,22.80
2024-05-09T07:15:06.953Z,23.90
2024-05-09T07:16:06.930Z,22.60
2024-05-09T07:17:07.001Z,23.50
2024-05-09T07:18:06.974Z,22.60
2024-05-09T07:19:07.030Z,23.20
2024-05-09T07:20:09.121Z,24.30
2024-05-09T07:21:06.821Z,23.30
2024-05-09T07:22:06.732Z,23.10
2024-05-09T07:23:06.730Z,23.60
2024-05-09T07:24:06.706Z,23.80
2024-05-09T07:25:06.653Z,22.70
2024-05-09T07:26:06.646Z,22.90
2024-05-09T07:27:06.624Z,23.50
2024-05-09T07:28:06.549Z,23.60
2024-05-09T07:29:06.528Z,24.20
2024-05-09T07:30:07.421Z,24.60
2024-05-09T07:31:06.469Z,23.80
2024-05-09T07:32:14.153Z,24.00
2024-05-09T07:33:06.749Z,24.20
2024-05-09T07:34:06.418Z,24.10
2024-05-09T07:35:06.390Z,23.70
2024-05-09T07:36:06.378Z,23.40
2024-05-09T07:37:06.287Z,23.90
2024-05-09T07:38:06.269Z,23.70
2024-05-09T07:39:06.263Z,24.10
2024-05-09T07:40:07.651Z,24.40
2024-05-09T07:41:06.180Z,23.60
2024-05-09T07:42:06.136Z,23.70
2024-05-09T07:43:06.089Z,23.90
2024-05-09T07:44:06.119Z,23.60
2024-05-09T07:45:21.572Z,23.00
2024-05-09T07:47:04.527Z,22.80
2024-05-09T07:48:14.429Z,22.80
2024-05-09T07:50:55.904Z,22.80
2024-05-09T07:53:29.806Z,22.10
2024-05-09T07:53:37.819Z,21.40
2024-05-09T07:54:13.981Z,21.70
2024-05-09T07:55:14.576Z,22.70
2024-05-09T07:56:05.969Z,22.00
2024-05-09T07:57:05.716Z,21.70
2024-05-09T07:58:05.751Z,21.70
2024-05-09T07:59:06.248Z,21.60
2024-05-09T08:00:06.671Z,22.00
2024-05-09T08:01:05.844Z,21.90
2024-05-09T08:02:05.799Z,21.10
2024-05-09T08:03:05.572Z,20.70
2024-05-09T08:04:05.557Z,20.00
2024-05-09T08:05:05.637Z,20.20
2024-05-09T08:06:05.373Z,20.50
2024-05-09T08:07:05.406Z,20.70
2024-05-09T08:08:05.334Z,20.30
2024-05-09T08:09:10.669Z,20.40
2024-05-09T08:10:06.495Z,20.10
2024-05-09T08:11:05.316Z,20.00
2024-05-09T08:12:26.593Z,20.40
2024-05-09T08:13:06.412Z,20.60
2024-05-09T08:14:16.947Z,19.90
2024-05-09T08:15:05.830Z,19.70
2024-05-09T10:26:23.513Z,12.80
2024-05-09T10:27:22.605Z,14.80
2024-05-09T10:28:22.625Z,15.20
2024-05-09T10:29:22.545Z,14.70
2024-05-09T10:43:08.207Z,9.70
2024-05-09T10:44:07.984Z,12.20
2024-05-09T10:45:07.957Z,11.80
2024-05-09T10:46:08.102Z,11.40
2024-05-09T10:47:07.948Z,11.00
2024-05-09T10:48:08.046Z,9.60
2024-05-09T10:49:08.180Z,9.80
2024-05-09T10:50:12.749Z,11.50
2024-05-09T10:51:07.779Z,11.20
2024-05-09T10:52:07.818Z,10.20
2024-05-09T10:53:07.728Z,9.90
2024-05-09T10:54:07.720Z,9.10
2024-05-09T10:55:07.734Z,8.50
2024-05-09T10:56:07.650Z,7.80
2024-05-09T10:57:07.617Z,8.10
2024-05-09T10:58:07.670Z,7.80
2024-05-09T10:59:07.566Z,12.40
2024-05-09T11:00:12.747Z,14.70
2024-05-09T11:01:08.513Z,9.90
2024-05-09T11:02:07.781Z,9.00
2024-05-09T11:03:07.527Z,9.10
2024-05-09T11:04:07.574Z,8.70
2024-05-09T11:05:07.479Z,8.70
2024-05-09T11:06:07.785Z,8.90
2024-05-09T11:07:07.402Z,9.90
2024-05-09T11:08:07.347Z,9.50
2024-05-09T11:09:07.294Z,8.80
2024-05-09T11:10:12.253Z,9.40
2024-05-09T11:11:08.482Z,9.70
2024-05-09T11:12:07.384Z,10.20
2024-05-09T11:21:14.131Z,8.40
2024-05-09T11:22:13.792Z,9.50
2024-05-09T11:23:13.803Z,9.60
2024-05-09T11:24:13.717Z,9.20
2024-05-09T11:25:13.748Z,9.70
2024-05-09T11:26:13.682Z,9.70
2024-05-09T11:27:13.637Z,9.60
2024-05-09T11:28:13.712Z,9.20
2024-05-09T11:29:15.037Z,9.80
2024-05-09T11:30:20.875Z,10.50
2024-05-09T11:31:13.575Z,10.10
2024-05-09T11:32:13.594Z,9.80
2024-05-09T11:33:13.536Z,13.80
2024-05-09T11:34:13.466Z,9.50
2024-05-09T11:35:13.421Z,10.20
2024-05-09T11:36:13.357Z,10.50
2024-05-09T11:37:13.485Z,11.60
2024-05-09T11:38:13.291Z,12.30
2024-05-09T11:39:13.262Z,10.30
2024-05-09T11:40:21.138Z,11.00
2024-05-09T11:41:13.214Z,10.50
2024-05-09T11:42:13.215Z,11.10
2024-05-09T11:43:13.170Z,10.30
2024-05-09T11:44:13.155Z,10.40
2024-05-09T11:45:13.069Z,10.40
2024-05-09T11:46:13.223Z,10.30
2024-05-09T11:47:13.071Z,11.00
2024-05-09T11:48:13.167Z,11.00
2024-05-09T11:49:13.062Z,10.70
2024-05-09T11:50:19.151Z,10.40
2024-05-09T11:51:12.880Z,10.50
2024-05-09T11:52:13.004Z,9.80
2024-05-09T11:53:12.857Z,9.50
2024-05-09T11:54:12.792Z,9.90
2024-05-09T11:55:12.951Z,10.00
2024-05-09T11:56:12.716Z,9.60
2024-05-09T11:57:12.700Z,10.10
2024-05-09T11:58:12.825Z,9.10
2024-05-09T11:59:12.648Z,9.30
2024-05-09T12:00:18.224Z,9.50
2024-05-09T12:01:12.657Z,9.10
2024-05-09T12:02:12.750Z,9.60
2024-05-09T12:03:12.579Z,8.70
2024-05-09T12:04:12.653Z,8.60
2024-05-09T12:05:12.549Z,9.90
2024-05-09T12:06:12.479Z,9.20
2024-05-09T12:07:13.076Z,9.80
